This is the latest recevied weather packets stored in our database for station/object N6OL. If no packets are shown the sender has not sent any weather packets the latest 10 day(s).
| Time | Temp. | Humidity | Pressure | Rain* | Wind** | Luminosity | Snow |
|---|---|---|---|---|---|---|---|
| 1777707924 | 12.22° C | 85% | 1013.8 hPa | 0 mm | - | 0 W/m² | - |
| 1777705203 | 12.22° C | 86% | 1013.7 hPa | 0 mm | - | 0 W/m² | - |
| 1777704003 | 12.22° C | 86% | 1013.7 hPa | 0 mm | - | 0 W/m² | - |
| 1777701903 | 12.22° C | 86% | 1013.9 hPa | 0 mm | - | 0 W/m² | - |
| 1777701003 | 12.22° C | 86% | 1013.9 hPa | 0 mm | - | 0 W/m² | - |
| 1777700703 | 12.22° C | 86% | 1013.9 hPa | 0 mm | - | 0 W/m² | - |
| 1777699503 | 12.22° C | 86% | 1013.9 hPa | 0 mm | - | 0 W/m² | - |
| 1777699203 | 12.22° C | 86% | 1013.9 hPa | 0 mm | - | 0 W/m² | - |
| 1777698303 | 12.22° C | 85% | 1013.8 hPa | 0 mm | - | 0 W/m² | - |
| 1777697403 | 12.22° C | 85% | 1013.7 hPa | 0 mm | - | 0 W/m² | - |
| 1777696224 | 12.22° C | 85% | 1013.5 hPa | 0 mm | - | 0 W/m² | - |
| 1777693224 | 13.33° C | 82% | 1012.8 hPa | 0 mm | - | 0 W/m² | - |
| 1777692903 | 13.33° C | 81% | 1012.6 hPa | 0 mm | - | 0 W/m² | - |
| 1777692003 | 13.33° C | 81% | 1012.6 hPa | 0 mm | - | 0 W/m² | - |
| 1777691403 | 13.33° C | 80% | 1012.6 hPa | 0 mm | - | 0 W/m² | - |
| 1777691103 | 13.33° C | 80% | 1012.5 hPa | 0 mm | - | 0 W/m² | - |
| 1777690203 | 13.89° C | 78% | 1012.3 hPa | 0 mm | - | 5 W/m² | - |
| 1777689024 | 14.44° C | 77% | 1012.3 hPa | 0 mm | - | 16 W/m² | - |
| 1777688103 | 15° C | 75% | 1012.4 hPa | 0 mm | - | 37 W/m² | - |
| 1777684524 | 16.67° C | 71% | 1012.2 hPa | 0 mm | - | 269 W/m² | - |
| 1777683603 | 16.67° C | 71% | 1012.4 hPa | 0 mm | - | 313 W/m² | - |
| 1777682103 | 17.22° C | 68% | 1012.3 hPa | 0 mm | - | 387 W/m² | - |
| 1777681503 | 17.78° C | 67% | 1012.3 hPa | 0 mm | - | 387 W/m² | - |
| 1777680603 | 17.78° C | 66% | 1012.3 hPa | 0 mm | - | 462 W/m² | - |
| 1777679703 | 17.78° C | 71% | 1012.3 hPa | 0 mm | - | 501 W/m² | - |
* Rain latest hour (hover to see other rain measurements)
** Current wind speed in m/s (hover to see current wind gust speed)